Time;durP1;ratioP1;P1;durP2;ratioP2;P2;SDS_P1;SDS_P2;PMS_P1;PMS_P2;Temp;Humidity;BMP_temperature;BMP_pressure;BME280_temperature;BME280_humidity;BME280_pressure;Samples;Min_cycle;Max_cycle;Signal;HPM_P1;HPM_P2
2022/06/26 00:00:11;;;;;;;17.33;15.20;;;21.50;99.90;;;;;;5051971;28;20173;-66
2022/06/26 00:02:37;;;;;;;15.70;13.90;;;21.50;99.90;;;;;;5052082;28;20668;-67
2022/06/26 00:05:04;;;;;;;16.90;14.43;;;21.50;99.90;;;;;;5051742;22;20532;-67
2022/06/26 00:07:29;;;;;;;19.20;14.70;;;21.50;99.90;;;;;;5033021;28;20166;-68
2022/06/26 00:09:55;;;;;;;15.40;13.80;;;21.50;99.90;;;;;;5032726;28;20555;-69
2022/06/26 00:12:20;;;;;;;16.37;14.77;;;21.50;99.90;;;;;;5032700;28;20264;-68
2022/06/26 00:14:46;;;;;;;15.23;13.83;;;21.40;99.90;;;;;;5032302;28;20683;-69
2022/06/26 00:17:12;;;;;;;17.33;14.50;;;21.40;99.90;;;;;;5032944;28;20167;-70
2022/06/26 00:19:38;;;;;;;14.07;12.47;;;21.40;99.90;;;;;;5033036;28;20537;-70
2022/06/26 00:22:05;;;;;;;14.40;13.10;;;21.40;99.90;;;;;;5032440;28;20175;-70
2022/06/26 00:24:33;;;;;;;14.90;13.33;;;21.40;99.90;;;;;;5032644;28;20804;-69
2022/06/26 00:26:58;;;;;;;15.23;13.77;;;21.40;99.90;;;;;;5032889;28;20399;-69
2022/06/26 00:29:24;;;;;;;15.23;13.80;;;21.30;99.90;;;;;;5032591;28;20791;-70
2022/06/26 00:31:49;;;;;;;16.23;14.60;;;21.30;99.90;;;;;;5032608;28;20248;-69
2022/06/26 00:34:15;;;;;;;13.00;11.70;;;21.30;99.90;;;;;;5032444;28;20187;-70
2022/06/26 00:36:41;;;;;;;14.93;13.30;;;21.30;99.90;;;;;;5031971;28;20203;-69
2022/06/26 00:39:06;;;;;;;14.13;12.73;;;21.30;99.90;;;;;;5032448;28;20252;-69
2022/06/26 00:41:33;;;;;;;14.23;12.97;;;21.30;99.90;;;;;;5032168;28;20604;-69
2022/06/26 00:43:58;;;;;;;16.43;13.27;;;21.30;99.90;;;;;;5031883;28;20197;-69
2022/06/26 00:46:24;;;;;;;15.17;13.47;;;21.20;99.90;;;;;;5014427;28;20838;-69
2022/06/26 00:48:51;;;;;;;14.20;12.20;;;21.20;99.90;;;;;;5032104;28;20204;-69
2022/06/26 00:51:18;;;;;;;14.07;12.77;;;21.30;99.90;;;;;;5030950;28;20460;-70
2022/06/26 00:53:43;;;;;;;15.83;14.30;;;21.20;99.90;;;;;;5031949;28;21101;-70
2022/06/26 00:56:09;;;;;;;12.70;11.40;;;21.20;99.90;;;;;;5031591;28;20406;-69
2022/06/26 00:58:35;;;;;;;14.03;12.73;;;21.20;99.90;;;;;;5031848;28;20170;-69
2022/06/26 01:01:00;;;;;;;15.50;14.00;;;21.10;99.90;;;;;;5031948;28;20182;-70
2022/06/26 01:03:26;;;;;;;15.83;14.20;;;21.10;99.90;;;;;;5031921;28;20184;-70
2022/06/26 01:05:53;;;;;;;15.73;14.23;;;21.10;99.90;;;;;;5031535;28;20201;-69
2022/06/26 01:08:18;;;;;;;13.67;12.40;;;21.10;99.90;;;;;;5014373;28;20182;-69
2022/06/26 01:10:47;;;;;;;15.63;14.20;;;21.20;99.90;;;;;;5032370;28;20416;-69
2022/06/26 01:13:13;;;;;;;15.30;13.90;;;21.10;99.90;;;;;;5031774;28;20537;-70
2022/06/26 01:15:39;;;;;;;15.33;13.73;;;21.10;99.90;;;;;;5031741;28;20476;-70
2022/06/26 01:18:05;;;;;;;14.33;13.00;;;21.10;99.90;;;;;;5031953;28;20266;-70
2022/06/26 01:20:30;;;;;;;14.90;13.47;;;21.00;99.90;;;;;;5031961;28;20400;-70
2022/06/26 01:23:07;;;;;;;15.77;14.10;;;21.00;99.90;;;;;;5032179;28;20640;-70
2022/06/26 01:25:47;;;;;;;15.30;12.50;;;21.00;99.90;;;;;;5030006;28;20200;-69
2022/06/26 01:28:14;;;;;;;15.00;13.50;;;21.00;99.90;;;;;;5032256;28;20400;-69
2022/06/26 01:30:39;;;;;;;15.23;13.43;;;21.00;99.90;;;;;;5032353;28;20400;-71
2022/06/26 01:33:06;;;;;;;15.23;13.73;;;21.00;99.90;;;;;;5032457;28;20550;-70
2022/06/26 01:35:32;;;;;;;15.20;13.80;;;20.90;99.90;;;;;;5031876;28;20609;-70
2022/06/26 01:38:20;;;;;;;16.80;15.20;;;20.90;99.90;;;;;;5032240;28;20922;-70
2022/06/26 01:40:47;;;;;;;16.37;14.73;;;20.90;99.90;;;;;;5031727;28;20961;-69
2022/06/26 01:43:14;;;;;;;17.97;16.13;;;20.90;99.90;;;;;;5031552;28;20497;-69
2022/06/26 01:45:48;;;;;;;16.60;14.20;;;20.90;99.90;;;;;;5031207;28;20436;-69
2022/06/26 01:48:14;;;;;;;15.40;13.90;;;20.90;99.90;;;;;;5013515;28;20421;-69
2022/06/26 01:50:41;;;;;;;15.17;13.57;;;20.90;99.90;;;;;;5013551;28;20416;-69
2022/06/26 01:53:06;;;;;;;16.70;15.10;;;20.80;99.90;;;;;;5031320;28;20412;-70
2022/06/26 01:55:33;;;;;;;17.60;15.10;;;20.90;99.90;;;;;;5031238;28;20546;-70
2022/06/26 01:58:02;;;;;;;16.73;15.10;;;20.90;99.90;;;;;;5031703;28;20851;-68
2022/06/26 02:00:34;;;;;;;16.53;14.60;;;20.90;99.90;;;;;;5014118;28;20265;-70
2022/06/26 02:03:00;;;;;;;15.93;14.43;;;20.90;99.90;;;;;;5032699;28;20940;-69
2022/06/26 02:05:26;;;;;;;14.73;13.30;;;20.90;99.90;;;;;;5034630;28;20457;-69
2022/06/26 02:07:52;;;;;;;15.17;13.67;;;20.80;99.90;;;;;;5036173;28;20412;-69
2022/06/26 02:15:53;;;;;;;16.53;14.93;;;20.70;99.90;;;;;;5035959;28;20400;-69
2022/06/26 02:18:20;;;;;;;16.03;14.60;;;20.70;99.90;;;;;;5035473;28;20949;-69
2022/06/26 02:20:46;;;;;;;16.10;14.60;;;20.70;99.90;;;;;;5035431;28;20412;-69
2022/06/26 02:23:13;;;;;;;15.37;13.77;;;20.70;99.90;;;;;;5035224;28;20406;-70
2022/06/26 02:25:39;;;;;;;17.77;15.87;;;20.60;99.90;;;;;;5034918;28;20815;-70
2022/06/26 02:28:05;;;;;;;17.43;15.73;;;20.70;99.90;;;;;;5035282;28;20442;-70
2022/06/26 02:30:32;;;;;;;18.17;16.47;;;20.60;99.90;;;;;;5017729;28;20197;-70
2022/06/26 02:32:57;;;;;;;16.23;14.73;;;20.60;99.90;;;;;;5035041;28;20520;-69
2022/06/26 02:35:24;;;;;;;17.47;15.77;;;20.60;99.90;;;;;;5034446;28;20427;-70
2022/06/26 02:37:50;;;;;;;16.00;14.43;;;20.60;99.90;;;;;;5034986;28;20541;-69
2022/06/26 02:40:16;;;;;;;18.60;16.00;;;20.60;99.90;;;;;;5016995;28;20442;-69
2022/06/26 02:42:43;;;;;;;18.00;15.43;;;20.50;99.90;;;;;;5035000;28;20449;-70
2022/06/26 02:45:09;;;;;;;16.90;15.30;;;20.50;99.90;;;;;;5034677;28;20199;-69
2022/06/26 02:47:35;;;;;;;17.47;15.87;;;20.50;99.90;;;;;;5035283;28;20498;-68
2022/06/26 02:50:02;;;;;;;18.83;16.93;;;20.50;99.90;;;;;;5034720;28;20822;-68
2022/06/26 02:52:28;;;;;;;14.70;13.23;;;20.50;99.90;;;;;;5034787;28;20207;-69
2022/06/26 02:54:53;;;;;;;18.23;14.80;;;20.50;99.90;;;;;;5034816;28;20772;-70
2022/06/26 02:57:19;;;;;;;16.27;14.77;;;20.50;99.90;;;;;;5034716;28;20176;-69
2022/06/26 02:59:44;;;;;;;17.30;15.70;;;20.50;99.90;;;;;;5034326;28;20162;-68
2022/06/26 03:02:10;;;;;;;16.97;15.33;;;20.60;99.90;;;;;;5034156;28;20668;-68
2022/06/26 03:04:35;;;;;;;16.87;15.20;;;20.60;99.90;;;;;;5033795;28;20705;-69
2022/06/26 03:07:01;;;;;;;17.47;15.77;;;20.60;99.90;;;;;;5034130;28;20487;-69
2022/06/26 03:09:27;;;;;;;18.13;16.37;;;20.50;99.90;;;;;;5034377;28;20655;-69
2022/06/26 03:11:52;;;;;;;16.70;15.13;;;20.50;99.90;;;;;;5033831;28;20197;-69
2022/06/26 03:14:18;;;;;;;17.70;15.80;;;20.60;99.90;;;;;;5032759;28;20680;-69
2022/06/26 03:16:43;;;;;;;16.93;15.27;;;20.60;99.90;;;;;;5033832;28;20169;-69
2022/06/26 03:19:09;;;;;;;16.87;15.27;;;20.60;99.90;;;;;;5033900;28;20224;-70
2022/06/26 03:21:35;;;;;;;15.57;13.97;;;20.70;99.90;;;;;;5033999;28;20205;-69
2022/06/26 03:24:03;;;;;;;18.27;16.53;;;20.70;99.90;;;;;;5015689;28;20546;-70
2022/06/26 03:26:34;;;;;;;17.73;15.90;;;20.70;99.90;;;;;;5033350;28;20166;-70
2022/06/26 03:29:01;;;;;;;17.17;15.30;;;20.80;99.90;;;;;;5033615;28;20415;-70
2022/06/26 03:31:28;;;;;;;18.53;16.73;;;20.80;99.90;;;;;;5034020;28;20786;-70
2022/06/26 03:33:54;;;;;;;17.63;15.90;;;20.90;99.90;;;;;;5034348;28;20472;-70
2022/06/26 03:36:20;;;;;;;17.47;15.80;;;21.00;99.90;;;;;;5033279;28;20409;-69
2022/06/26 03:38:46;;;;;;;19.90;16.37;;;21.00;99.90;;;;;;5033354;28;20414;-70
2022/06/26 03:41:12;;;;;;;18.20;16.37;;;21.10;99.90;;;;;;5033249;28;20925;-69
2022/06/26 03:43:37;;;;;;;18.80;15.90;;;21.10;99.90;;;;;;5033161;28;20175;-69
2022/06/26 03:46:03;;;;;;;19.03;17.13;;;21.20;99.90;;;;;;5033132;28;20497;-69
2022/06/26 03:48:30;;;;;;;17.40;15.67;;;21.20;99.90;;;;;;5033393;28;20260;-68
2022/06/26 03:50:56;;;;;;;19.63;16.43;;;21.30;99.90;;;;;;5033219;28;20419;-69
2022/06/26 03:53:22;;;;;;;18.93;17.10;;;21.40;99.90;;;;;;5033017;28;20849;-69
2022/06/26 03:55:47;;;;;;;17.17;13.93;;;21.50;99.90;;;;;;5032826;28;20493;-69
2022/06/26 03:58:13;;;;;;;15.63;14.23;;;21.60;99.90;;;;;;5033448;28;20432;-70
2022/06/26 04:00:40;;;;;;;15.20;13.70;;;21.60;99.90;;;;;;5015646;28;20182;-69
2022/06/26 04:03:06;;;;;;;14.17;12.93;;;21.80;99.90;;;;;;5033468;28;20259;-69
2022/06/26 04:05:33;;;;;;;14.33;12.90;;;21.90;99.90;;;;;;5033070;28;20487;-70
2022/06/26 04:07:59;;;;;;;15.27;13.83;;;22.00;99.90;;;;;;5033360;28;20418;-69
2022/06/26 04:10:25;;;;;;;14.40;13.13;;;22.10;99.90;;;;;;5015320;28;20417;-68
2022/06/26 04:12:51;;;;;;;15.30;13.90;;;22.30;99.90;;;;;;5032592;28;20821;-69
2022/06/26 04:15:16;;;;;;;14.90;13.43;;;22.40;99.90;;;;;;5032605;28;20211;-70
2022/06/26 04:17:42;;;;;;;14.33;12.90;;;22.60;99.90;;;;;;5033113;28;20172;-70
2022/06/26 04:20:09;;;;;;;15.20;13.70;;;23.00;99.90;;;;;;5032865;28;20550;-69
2022/06/26 04:22:35;;;;;;;12.63;11.50;;;23.90;99.90;;;;;;5014945;28;20178;-69
2022/06/26 04:25:00;;;;;;;12.93;11.77;;;24.60;99.90;;;;;;5032269;28;20594;-69
2022/06/26 04:27:26;;;;;;;11.83;10.63;;;25.60;99.90;;;;;;5032538;28;20504;-69
2022/06/26 04:29:52;;;;;;;11.80;10.73;;;25.90;99.90;;;;;;5032417;28;20415;-70
2022/06/26 04:32:17;;;;;;;10.97;10.07;;;26.20;99.90;;;;;;5032516;28;20210;-69
2022/06/26 04:34:43;;;;;;;11.03;9.90;;;26.50;99.90;;;;;;5032207;28;20194;-70
2022/06/26 04:37:09;;;;;;;9.90;9.03;;;26.80;99.90;;;;;;5032518;28;20637;-70
2022/06/26 04:39:34;;;;;;;11.30;10.40;;;27.30;99.90;;;;;;5032329;28;20538;-69
2022/06/26 04:42:00;;;;;;;10.13;9.23;;;27.00;99.90;;;;;;5032675;28;20661;-70
2022/06/26 04:44:26;;;;;;;11.60;8.20;;;27.10;99.90;;;;;;5032645;28;20535;-69
2022/06/26 04:46:52;;;;;;;10.10;9.20;;;27.40;99.90;;;;;;5014728;28;20482;-68
2022/06/26 04:49:18;;;;;;;10.10;9.20;;;27.60;99.90;;;;;;5032938;28;20221;-69
2022/06/26 04:51:44;;;;;;;10.80;10.00;;;27.30;99.90;;;;;;5032108;28;20489;-69
2022/06/26 04:54:10;;;;;;;10.23;9.43;;;27.10;99.90;;;;;;5032009;28;20207;-68
2022/06/26 04:56:36;;;;;;;9.73;9.00;;;26.50;99.90;;;;;;5031979;28;20579;-69
2022/06/26 04:59:03;;;;;;;10.43;9.53;;;25.80;99.90;;;;;;5014040;28;20928;-70
2022/06/26 05:01:29;;;;;;;9.90;9.10;;;25.50;99.90;;;;;;5031773;28;20403;-69
2022/06/26 05:03:55;;;;;;;11.57;10.57;;;25.10;99.90;;;;;;5031516;28;20861;-69
2022/06/26 05:06:21;;;;;;;10.97;9.97;;;25.10;99.90;;;;;;5013738;28;20277;-70
2022/06/26 05:08:47;;;;;;;11.27;10.10;;;25.00;99.90;;;;;;5031508;28;20448;-69
2022/06/26 05:11:13;;;;;;;13.20;12.03;;;24.90;99.90;;;;;;5031744;28;20559;-70
2022/06/26 05:13:39;;;;;;;11.43;10.33;;;25.00;99.90;;;;;;5031674;28;20414;-69
2022/06/26 05:16:06;;;;;;;10.37;9.53;;;25.20;99.90;;;;;;5014034;28;20448;-70
2022/06/26 05:18:32;;;;;;;10.83;9.90;;;24.60;99.90;;;;;;5014069;28;20423;-70
2022/06/26 05:20:58;;;;;;;11.00;10.10;;;24.20;99.90;;;;;;5014360;28;20432;-70
2022/06/26 05:23:24;;;;;;;11.33;10.20;;;24.20;99.90;;;;;;5031632;28;20166;-69
2022/06/26 05:25:53;;;;;;;11.30;10.37;;;24.10;99.90;;;;;;5031435;28;20426;-69
2022/06/26 05:28:19;;;;;;;11.73;10.60;;;24.20;99.90;;;;;;5031829;28;20418;-69
2022/06/26 05:30:45;;;;;;;11.13;10.23;;;24.10;99.90;;;;;;5031908;28;20974;-70
2022/06/26 05:33:11;;;;;;;12.50;11.30;;;23.90;99.90;;;;;;5031824;28;20742;-71
2022/06/26 05:35:36;;;;;;;12.30;11.10;;;24.10;99.90;;;;;;5013426;28;20524;-70
2022/06/26 05:38:02;;;;;;;11.50;10.40;;;24.40;99.90;;;;;;5016863;28;20217;-69
2022/06/26 05:40:28;;;;;;;13.40;12.07;;;24.80;99.90;;;;;;5038532;28;20682;-69
2022/06/26 05:42:57;;;;;;;13.13;11.93;;;24.90;99.90;;;;;;5038385;28;20171;-70
2022/06/26 05:45:23;;;;;;;11.80;10.90;;;24.70;99.90;;;;;;5038155;28;20237;-69
2022/06/26 05:47:49;;;;;;;10.90;9.43;;;24.70;99.90;;;;;;5038161;28;20537;-69
2022/06/26 05:50:14;;;;;;;11.80;10.80;;;25.00;99.90;;;;;;5038180;28;20173;-69
2022/06/26 05:52:40;;;;;;;10.60;9.70;;;25.30;99.90;;;;;;5038005;28;20608;-70
2022/06/26 05:55:07;;;;;;;10.57;9.57;;;25.20;99.90;;;;;;5037851;28;20247;-69
2022/06/26 05:57:32;;;;;;;10.47;9.67;;;25.10;99.90;;;;;;5038125;28;20225;-70
2022/06/26 05:59:58;;;;;;;11.03;10.03;;;24.90;99.90;;;;;;5038006;28;20416;-70
2022/06/26 06:02:24;;;;;;;10.10;9.20;;;25.40;99.90;;;;;;5020142;28;20178;-70
2022/06/26 06:04:49;;;;;;;9.40;8.70;;;25.80;99.90;;;;;;5038304;28;20214;-69
2022/06/26 06:07:15;;;;;;;9.10;8.30;;;26.20;99.90;;;;;;5037798;28;20178;-69
2022/06/26 06:09:41;;;;;;;9.60;8.70;;;26.20;99.90;;;;;;5038262;28;20199;-69
2022/06/26 06:12:06;;;;;;;9.27;8.30;;;27.30;99.90;;;;;;5037822;28;20206;-69
2022/06/26 06:14:32;;;;;;;9.20;8.47;;;27.20;99.90;;;;;;5037752;28;20279;-69
2022/06/26 06:17:35;;;;;;;8.30;7.63;;;28.00;99.90;;;;;;5038037;28;20176;-69
2022/06/26 06:19:43;;;;;;;9.30;8.60;;;28.20;99.90;;;;;;5037880;28;20713;-69
2022/06/26 06:22:09;;;;;;;6.53;5.97;;;29.50;99.90;;;;;;5038504;28;20497;-69
2022/06/26 06:24:34;;;;;;;8.43;7.73;;;28.70;99.90;;;;;;5019913;28;20210;-69
2022/06/26 06:27:00;;;;;;;6.50;6.00;;;28.40;99.90;;;;;;5037954;28;20702;-69
2022/06/26 06:29:25;;;;;;;6.80;6.20;;;28.80;99.90;;;;;;5038167;28;20171;-69
2022/06/26 06:31:51;;;;;;;6.30;5.80;;;29.40;99.90;;;;;;5037725;28;20309;-68
2022/06/26 06:34:16;;;;;;;6.10;5.60;;;29.20;99.90;;;;;;5037789;28;20214;-68
2022/06/26 06:36:42;;;;;;;5.80;5.40;;;28.60;99.90;;;;;;5037940;28;20250;-68
2022/06/26 06:39:07;;;;;;;5.20;4.80;;;29.50;99.90;;;;;;5037989;28;20175;-68
2022/06/26 06:41:33;;;;;;;5.80;5.40;;;29.20;99.90;;;;;;5037988;28;20183;-68
2022/06/26 06:43:58;;;;;;;4.83;4.43;;;28.90;99.90;;;;;;5038016;28;20600;-68
2022/06/26 06:46:24;;;;;;;5.33;4.90;;;29.20;99.90;;;;;;5037455;28;20579;-69
2022/06/26 06:48:50;;;;;;;5.97;5.47;;;29.20;99.90;;;;;;5036696;28;20609;-69
2022/06/26 06:51:15;;;;;;;5.50;4.97;;;29.50;99.90;;;;;;5034636;28;20353;-68
2022/06/26 06:53:41;;;;;;;5.37;5.00;;;29.90;99.90;;;;;;5034864;28;20178;-68
2022/06/26 06:56:07;;;;;;;4.97;4.50;;;30.20;99.90;;;;;;5016903;28;20179;-69
2022/06/26 06:58:32;;;;;;;4.57;4.27;;;31.00;99.90;;;;;;5034701;28;20167;-69
2022/06/26 07:00:58;;;;;;;5.20;4.70;;;30.40;99.90;;;;;;5034640;28;20167;-70
2022/06/26 07:03:24;;;;;;;4.30;4.00;;;30.40;99.90;;;;;;5034581;28;20175;-69
2022/06/26 07:05:49;;;;;;;5.20;4.80;;;29.80;99.90;;;;;;5034296;28;20221;-69
2022/06/26 07:08:15;;;;;;;4.90;4.60;;;30.00;99.90;;;;;;5035924;28;20167;-69
2022/06/26 07:10:40;;;;;;;5.03;4.60;;;31.00;99.90;;;;;;5017451;28;20206;-69
2022/06/26 07:13:06;;;;;;;4.80;4.20;;;31.90;99.90;;;;;;5034334;28;20294;-69
2022/06/26 07:15:31;;;;;;;4.43;4.13;;;33.60;99.90;;;;;;5034086;28;20269;-69
2022/06/26 07:17:57;;;;;;;5.23;4.20;;;33.80;99.60;;;;;;5034110;28;20163;-69
2022/06/26 07:20:23;;;;;;;5.20;4.90;;;34.40;99.30;;;;;;5034416;28;20168;-69
2022/06/26 07:22:49;;;;;;;5.33;4.90;;;33.60;98.80;;;;;;5034466;28;20555;-69
2022/06/26 07:25:14;;;;;;;5.13;4.83;;;32.40;99.90;;;;;;5016439;28;20449;-68
2022/06/26 07:27:40;;;;;;;5.67;5.37;;;32.30;99.40;;;;;;5034193;28;20179;-69
2022/06/26 07:30:06;;;;;;;6.00;5.60;;;31.20;99.90;;;;;;5033992;28;20568;-69
2022/06/26 07:32:32;;;;;;;5.70;5.30;;;31.20;99.90;;;;;;5034006;28;20298;-68
2022/06/26 07:34:57;;;;;;;4.43;4.13;;;33.10;99.90;;;;;;5034165;28;20866;-69
2022/06/26 07:37:23;;;;;;;4.70;4.33;;;33.30;97.70;;;;;;5034008;28;20167;-68
2022/06/26 07:39:48;;;;;;;5.53;4.50;;;33.60;96.90;;;;;;5033966;28;20237;-69
2022/06/26 07:42:14;;;;;;;4.03;3.83;;;33.30;96.70;;;;;;5033913;28;20190;-68
2022/06/26 07:44:39;;;;;;;4.23;3.93;;;32.90;96.30;;;;;;5033721;28;20294;-67
2022/06/26 07:47:05;;;;;;;3.47;3.27;;;33.30;95.70;;;;;;5000282;28;20178;-69
2022/06/26 07:49:30;;;;;;;3.90;3.60;;;32.10;96.90;;;;;;5034070;28;20167;-69
2022/06/26 07:51:56;;;;;;;3.70;3.40;;;33.50;94.50;;;;;;5033740;28;20716;-69
2022/06/26 07:54:21;;;;;;;3.83;3.60;;;33.70;92.70;;;;;;5033837;28;20275;-69
2022/06/26 07:56:50;;;;;;;3.63;3.30;;;33.60;93.30;;;;;;5033653;28;20582;-69
2022/06/26 07:59:16;;;;;;;3.47;3.27;;;33.00;94.10;;;;;;5033365;28;20672;-69
2022/06/26 08:01:41;;;;;;;3.70;3.50;;;33.80;92.60;;;;;;5033480;28;20406;-69
2022/06/26 08:04:08;;;;;;;4.13;3.83;;;34.80;91.60;;;;;;5033082;28;20446;-69
2022/06/26 08:06:33;;;;;;;3.60;3.30;;;34.20;91.80;;;;;;5033347;28;20248;-68
2022/06/26 08:09:00;;;;;;;3.63;3.43;;;33.90;91.90;;;;;;5015773;28;20952;-69
2022/06/26 08:11:26;;;;;;;3.60;3.40;;;32.90;92.40;;;;;;5015391;28;20195;-67
2022/06/26 08:13:52;;;;;;;3.37;3.17;;;33.60;91.60;;;;;;5033189;28;20438;-69
2022/06/26 08:16:18;;;;;;;3.20;3.00;;;34.20;90.50;;;;;;5015238;28;20215;-69
2022/06/26 08:18:43;;;;;;;3.00;2.80;;;34.10;90.00;;;;;;5033368;28;20900;-69
2022/06/26 08:22:09;;;;;;;3.63;3.37;;;34.50;88.40;;;;;;5033202;28;20168;-69
2022/06/26 08:24:04;;;;;;;2.90;2.70;;;34.10;88.20;;;;;;5015640;28;20203;-68
2022/06/26 08:26:29;;;;;;;2.50;2.40;;;33.20;89.40;;;;;;5032905;28;20406;-68
2022/06/26 08:28:55;;;;;;;2.97;2.77;;;33.40;88.40;;;;;;5032754;28;20190;-68
2022/06/26 08:31:20;;;;;;;3.00;2.80;;;32.70;90.40;;;;;;5032901;28;20595;-69
2022/06/26 08:33:46;;;;;;;2.37;2.27;;;32.40;90.10;;;;;;5033078;28;20194;-69
2022/06/26 08:36:12;;;;;;;2.63;2.43;;;33.00;90.20;;;;;;5032812;28;20171;-69
2022/06/26 08:38:39;;;;;;;2.27;2.17;;;33.00;87.30;;;;;;5032814;28;20664;-68
2022/06/26 08:41:09;;;;;;;3.30;3.10;;;33.80;84.60;;;;;;5032617;28;20194;-69
2022/06/26 08:43:37;;;;;;;2.70;2.50;;;33.90;86.00;;;;;;5032577;28;20440;-69
2022/06/26 08:46:04;;;;;;;2.77;2.57;;;34.00;84.20;;;;;;5032394;28;20437;-69
2022/06/26 08:48:40;;;;;;;2.80;2.60;;;33.90;81.80;;;;;;5032700;28;20409;-68
2022/06/26 08:51:07;;;;;;;2.33;2.13;;;34.10;82.30;;;;;;5032832;28;20991;-68
2022/06/26 08:53:33;;;;;;;3.03;2.83;;;34.20;81.70;;;;;;5014778;28;20406;-69
2022/06/26 08:55:59;;;;;;;3.40;3.10;;;34.30;82.10;;;;;;5032191;28;20494;-69
2022/06/26 08:58:24;;;;;;;3.13;2.93;;;34.40;83.40;;;;;;5032464;28;20502;-69
2022/06/26 09:00:50;;;;;;;2.60;2.50;;;33.60;84.20;;;;;;5032533;28;20254;-69
2022/06/26 09:03:16;;;;;;;2.70;2.50;;;34.60;82.10;;;;;;5032411;28;20168;-69
2022/06/26 09:05:41;;;;;;;2.77;2.57;;;34.20;82.00;;;;;;5031894;28;20206;-69
2022/06/26 09:08:17;;;;;;;3.07;2.87;;;34.70;79.10;;;;;;5032340;28;20255;-69
2022/06/26 09:10:47;;;;;;;2.93;2.73;;;33.30;83.00;;;;;;5032384;28;20715;-68
2022/06/26 09:13:13;;;;;;;2.77;2.57;;;33.70;83.50;;;;;;5031602;28;20453;-68
2022/06/26 09:15:40;;;;;;;2.50;2.30;;;34.00;80.60;;;;;;5031791;28;20479;-69
2022/06/26 09:18:08;;;;;;;2.53;2.43;;;33.20;82.00;;;;;;5031944;28;20174;-69
2022/06/26 09:20:37;;;;;;;3.00;2.80;;;33.30;83.10;;;;;;5031890;28;20413;-70
2022/06/26 09:23:05;;;;;;;2.10;2.00;;;33.80;80.40;;;;;;5031715;28;20504;-69
2022/06/26 09:25:44;;;;;;;2.93;2.73;;;33.60;79.00;;;;;;5031676;28;20450;-68
2022/06/26 09:28:20;;;;;;;3.47;3.27;;;34.10;78.50;;;;;;5031815;28;20418;-68
2022/06/26 09:30:46;;;;;;;3.10;2.90;;;33.70;80.90;;;;;;5031807;28;20402;-68
2022/06/26 09:33:12;;;;;;;4.40;3.00;;;32.50;82.80;;;;;;5031459;28;20454;-68
2022/06/26 09:35:38;;;;;;;3.30;3.10;;;33.00;83.30;;;;;;5031376;28;20426;-67
2022/06/26 09:38:03;;;;;;;3.47;3.17;;;32.80;83.50;;;;;;5031657;28;20195;-68
2022/06/26 09:40:29;;;;;;;3.00;2.80;;;32.80;84.50;;;;;;5031640;28;20181;-68
2022/06/26 09:42:55;;;;;;;2.87;2.67;;;33.10;82.60;;;;;;5031560;28;20163;-69
2022/06/26 09:45:21;;;;;;;3.60;3.30;;;33.70;79.90;;;;;;5031305;28;20203;-69
2022/06/26 09:47:47;;;;;;;3.87;3.00;;;33.50;80.70;;;;;;5031534;28;20913;-69
2022/06/26 09:50:13;;;;;;;3.37;3.17;;;33.70;80.50;;;;;;5031569;28;20241;-68
2022/06/26 09:52:39;;;;;;;3.10;2.80;;;33.50;80.10;;;;;;5031329;28;20542;-69
2022/06/26 09:55:06;;;;;;;3.37;3.07;;;33.90;79.90;;;;;;5031110;28;20187;-69
2022/06/26 09:57:32;;;;;;;3.27;3.07;;;33.90;79.70;;;;;;5031357;28;20428;-68
2022/06/26 09:59:58;;;;;;;3.60;3.30;;;34.10;79.40;;;;;;5031380;28;20405;-69
2022/06/26 10:08:03;;;;;;;3.57;3.27;;;32.30;82.10;;;;;;5031751;28;20412;-69
2022/06/26 10:10:31;;;;;;;4.00;3.70;;;31.90;84.60;;;;;;5031255;28;20437;-69
2022/06/26 10:13:00;;;;;;;4.23;3.83;;;31.80;86.30;;;;;;5031289;28;20453;-69
2022/06/26 10:15:31;;;;;;;4.37;4.10;;;31.50;87.40;;;;;;5031313;28;20419;-70
2022/06/26 10:18:36;;;;;;;3.90;3.60;;;31.70;87.10;;;;;;5031364;28;20402;-69
2022/06/26 10:21:12;;;;;;;3.40;3.20;;;31.80;86.70;;;;;;5017406;28;20437;-69
2022/06/26 10:23:39;;;;;;;4.17;3.87;;;30.90;89.70;;;;;;5032196;28;20382;-69
2022/06/26 10:26:13;;;;;;;4.40;4.10;;;30.90;90.10;;;;;;5034829;28;20593;-69
2022/06/26 10:29:14;;;;;;;3.70;3.40;;;31.00;90.50;;;;;;5035024;28;20398;-68
2022/06/26 10:31:47;;;;;;;4.30;4.00;;;30.60;91.60;;;;;;5034100;28;20480;-69
2022/06/26 10:34:21;;;;;;;4.97;4.60;;;30.30;91.90;;;;;;5034873;28;20418;-69
2022/06/26 10:36:57;;;;;;;4.00;3.70;;;30.40;91.60;;;;;;5034571;28;20410;-69
2022/06/26 10:39:22;;;;;;;4.17;3.87;;;30.50;90.50;;;;;;5034572;28;20485;-68
2022/06/26 10:44:54;;;;;;;4.20;3.50;;;30.70;91.60;;;;;;5034441;28;20286;-68
2022/06/26 10:47:20;;;;;;;4.33;3.97;;;30.70;90.90;;;;;;5034633;28;20475;-69
2022/06/26 10:49:50;;;;;;;3.97;3.67;;;30.60;91.50;;;;;;5034540;28;20414;-69
2022/06/26 10:52:24;;;;;;;4.23;3.93;;;30.70;91.40;;;;;;5034350;28;20334;-69
2022/06/26 10:54:50;;;;;;;4.30;4.00;;;30.30;92.20;;;;;;5033945;28;20430;-71
2022/06/26 10:57:21;;;;;;;4.13;3.60;;;31.00;91.20;;;;;;5034440;28;20800;-69
2022/06/26 10:59:47;;;;;;;4.60;4.20;;;31.00;91.70;;;;;;5034349;28;20399;-70
2022/06/26 11:02:13;;;;;;;3.80;3.50;;;31.00;91.20;;;;;;5016653;28;20414;-70
2022/06/26 11:04:46;;;;;;;4.27;3.90;;;31.10;91.00;;;;;;5034147;28;20573;-69
2022/06/26 11:07:15;;;;;;;4.13;3.83;;;31.40;90.70;;;;;;5033951;28;20432;-70
2022/06/26 11:09:42;;;;;;;4.00;3.70;;;31.60;88.70;;;;;;5034499;28;20429;-69
2022/06/26 11:12:08;;;;;;;3.80;3.60;;;31.20;89.50;;;;;;5034344;28;20462;-68
2022/06/26 11:14:33;;;;;;;5.43;4.33;;;31.30;90.60;;;;;;5034046;28;20425;-68
2022/06/26 11:16:59;;;;;;;4.17;3.87;;;31.40;90.70;;;;;;5034232;28;20908;-68
2022/06/26 11:19:29;;;;;;;3.60;3.30;;;31.30;90.90;;;;;;5034527;28;20530;-69
2022/06/26 11:22:08;;;;;;;3.40;3.20;;;31.60;90.30;;;;;;5034232;28;20700;-69
2022/06/26 11:24:34;;;;;;;4.07;3.67;;;31.30;89.20;;;;;;5033875;28;21013;-69
2022/06/26 11:27:00;;;;;;;3.67;3.47;;;31.00;88.80;;;;;;5034147;28;20783;-70
2022/06/26 11:29:27;;;;;;;4.30;4.00;;;31.30;89.60;;;;;;5034140;28;20418;-70
2022/06/26 11:31:53;;;;;;;3.73;3.53;;;31.00;90.50;;;;;;5033771;28;20450;-68
2022/06/26 11:34:20;;;;;;;4.17;3.77;;;31.20;90.00;;;;;;5033547;28;20422;-69
2022/06/26 11:36:50;;;;;;;4.20;3.90;;;31.20;89.20;;;;;;5032962;28;20409;-68
2022/06/26 11:39:16;;;;;;;3.70;3.40;;;31.50;88.30;;;;;;5033924;28;20402;-69
2022/06/26 11:41:42;;;;;;;4.23;3.93;;;31.40;88.90;;;;;;5033798;28;20418;-68
2022/06/26 11:44:08;;;;;;;4.00;3.70;;;31.30;90.00;;;;;;5033733;28;20998;-68
2022/06/26 11:46:34;;;;;;;3.80;3.50;;;31.40;88.70;;;;;;5015477;28;20338;-68
2022/06/26 11:48:59;;;;;;;3.20;2.90;;;31.30;89.10;;;;;;5033609;28;20180;-68
2022/06/26 11:51:30;;;;;;;4.33;4.03;;;31.80;90.20;;;;;;5033666;28;20681;-70
2022/06/26 11:53:56;;;;;;;3.60;3.30;;;31.90;89.30;;;;;;5015781;28;20228;-69
2022/06/26 11:56:27;;;;;;;4.20;3.90;;;31.70;88.90;;;;;;5033394;28;20414;-70
2022/06/26 11:58:55;;;;;;;3.60;3.40;;;31.50;88.00;;;;;;5033694;28;20656;-69
2022/06/26 12:01:22;;;;;;;4.73;4.37;;;31.60;87.90;;;;;;5033592;28;20422;-69
2022/06/26 12:03:47;;;;;;;4.13;3.83;;;31.20;88.90;;;;;;5015621;28;20434;-69
2022/06/26 12:06:37;;;;;;;3.70;3.40;;;31.10;90.00;;;;;;5033453;28;20765;-70
2022/06/26 12:09:28;;;;;;;4.60;4.20;;;31.40;90.00;;;;;;5034011;28;20254;-70
2022/06/26 12:11:55;;;;;;;4.33;4.03;;;31.50;89.70;;;;;;5021553;28;20508;-70
2022/06/26 12:14:24;;;;;;;4.10;3.80;;;31.70;89.70;;;;;;5033098;28;20437;-70
2022/06/26 12:16:56;;;;;;;4.90;4.50;;;31.60;86.60;;;;;;5033732;28;20433;-70
2022/06/26 12:19:23;;;;;;;3.90;3.60;;;31.50;87.90;;;;;;5033053;28;20398;-70
2022/06/26 12:21:53;;;;;;;4.00;3.60;;;31.70;86.00;;;;;;5033260;28;20402;-70
2022/06/26 12:24:20;;;;;;;4.10;3.80;;;32.00;84.90;;;;;;5032926;28;20442;-70
2022/06/26 12:26:46;;;;;;;4.10;3.80;;;31.60;84.70;;;;;;5033066;28;20406;-70
2022/06/26 12:29:17;;;;;;;5.33;4.93;;;31.50;84.50;;;;;;5015163;28;20426;-69
2022/06/26 12:31:43;;;;;;;4.30;4.00;;;30.80;86.80;;;;;;5032849;28;20500;-70
2022/06/26 12:34:09;;;;;;;4.07;3.77;;;30.50;89.40;;;;;;5032662;28;20557;-70
2022/06/26 12:36:37;;;;;;;4.93;4.53;;;30.60;88.10;;;;;;5032490;28;20908;-70
2022/06/26 12:39:04;;;;;;;4.70;4.40;;;30.70;87.80;;;;;;5032625;28;20409;-70
2022/06/26 12:41:29;;;;;;;3.93;3.63;;;30.80;86.70;;;;;;5032584;28;20410;-71
2022/06/26 12:44:01;;;;;;;4.00;3.70;;;30.90;87.40;;;;;;5032541;28;20457;-71
2022/06/26 12:46:27;;;;;;;4.40;4.10;;;31.20;87.90;;;;;;5032543;28;20666;-71
2022/06/26 12:48:54;;;;;;;4.27;3.97;;;31.20;87.30;;;;;;5031699;28;20451;-70
2022/06/26 12:51:21;;;;;;;4.30;4.00;;;31.40;86.90;;;;;;5032083;28;20658;-71